Shannon, Ireland

5:36 PM IST on August 31, 2016 (GMT +0100)
Shannon | | Change Station

Elev 66 ft 52.70 °N, 8.92 °W | Updated 6 minutes ago

Mostly Cloudy
Mostly Cloudy
61 °F
Feels Like 61 °F
N
12
Wind Variable Wind from West

Today
High -- | Low -- °F
--% Chance of Precip.
Yesterday
High -- | Low -- °F
Precip. -- in
Pressure 30.15 in
Visibility 6.2 miles
Clouds Few 3000 ft
Mostly Cloudy 4500 ft
Mostly Cloudy 10000 ft
Dew Point 50 °F
Humidity 68%
Rainfall 0.00 in
Snow Depth Not available.
6:45 AM 8:25 PM
Waning Crescent, 0% visible
METAR EINN 311630Z 27010KT 9999 FEW030 BKN045 BKN100 16/10 Q1021 NOSIG
Pressure 30.15 in
Visibility 6.2 miles
Clouds Few 3000 ft
Mostly Cloudy 4500 ft
Mostly Cloudy 10000 ft
Dew Point 50 °F
Humidity 68%
Rainfall 0.00 in
Snow Depth Not available.
6:45 AM 8:25 PM
Waning Crescent, 0% visible
METAR EINN 311630Z 27010KT 9999 FEW030 BKN045 BKN100 16/10 Q1021 NOSIG

10-Day Weather Forecast

×

Almanac

Astronomy

Aug. 31, 2016 Rise Set
Actual Time
Civil Twilight
Nautical Twilight
Astronomical Twilight
Moon
Length of Visible Light
Length of Day
Tomorrow will be .
, % of the Moon is Illuminated

Today's Extremes

Country Highs Country Lows

Community

WunderPhotos

Upload Photos

1,936,115 photos uploaded!

WunderBlog® & News

Nearby

Air Quality

  Air Quality AQ Index Pollutant
Not available.

Snow Depth

Station Depth Elevation

Earthquake Activity

City Distance Mag. Time & Date
Minimum magnitude displayed is 2.5.

Coastal Water Temperatures

Place Temperature

Stations

Nearby Weather Stations

Station Location Temp. Windchill Dew Point Humidity Wind Precip. Elev Updated Type